sensor_id;sensor_type;location;lat;lon;timestamp;pressure;altitude;pressure_sealevel;temperature;humidity
78888;BME280;68276;49.326;8.690;2023-05-17T00:00:44;100807.41;;;8.66;81.76
78888;BME280;68276;49.326;8.690;2023-05-17T00:03:09;100796.69;;;8.66;81.37
78888;BME280;68276;49.326;8.690;2023-05-17T00:05:34;100793.88;;;8.67;80.25
78888;BME280;68276;49.326;8.690;2023-05-17T00:08:00;100799.59;;;8.80;77.79
78888;BME280;68276;49.326;8.690;2023-05-17T00:10:25;100799.59;;;8.80;78.24
78888;BME280;68276;49.326;8.690;2023-05-17T00:12:50;100804.09;;;8.80;79.17
78888;BME280;68276;49.326;8.690;2023-05-17T00:15:16;100802.25;;;8.72;79.88
78888;BME280;68276;49.326;8.690;2023-05-17T00:17:41;100798.38;;;8.67;80.33
78888;BME280;68276;49.326;8.690;2023-05-17T00:20:07;100804.72;;;8.66;80.89
78888;BME280;68276;49.326;8.690;2023-05-17T00:22:32;100807.72;;;8.63;81.82
78888;BME280;68276;49.326;8.690;2023-05-17T00:24:58;100807.03;;;8.53;82.18
78888;BME280;68276;49.326;8.690;2023-05-17T00:27:23;100804.34;;;8.53;82.20
78888;BME280;68276;49.326;8.690;2023-05-17T00:29:48;100802.63;;;8.44;83.15
78888;BME280;68276;49.326;8.690;2023-05-17T00:32:14;100807.16;;;8.43;83.74
78888;BME280;68276;49.326;8.690;2023-05-17T00:34:40;100811.66;;;8.43;84.25
78888;BME280;68276;49.326;8.690;2023-05-17T00:37:05;100807.47;;;8.40;84.15
78888;BME280;68276;49.326;8.690;2023-05-17T00:39:30;100801.28;;;8.40;83.31
78888;BME280;68276;49.326;8.690;2023-05-17T00:41:56;100807.06;;;8.27;87.90
78888;BME280;68276;49.326;8.690;2023-05-17T00:44:21;100803.38;;;8.28;87.65
78888;BME280;68276;49.326;8.690;2023-05-17T00:46:47;100805.31;;;8.18;89.73
78888;BME280;68276;49.326;8.690;2023-05-17T00:49:14;100813.28;;;8.10;90.19
78888;BME280;68276;49.326;8.690;2023-05-17T00:51:40;100810.63;;;8.10;89.21
78888;BME280;68276;49.326;8.690;2023-05-17T00:54:05;100812.59;;;8.08;89.00
78888;BME280;68276;49.326;8.690;2023-05-17T00:56:31;100812.41;;;8.01;89.83
78888;BME280;68276;49.326;8.690;2023-05-17T00:58:57;100813.38;;;8.00;88.99
78888;BME280;68276;49.326;8.690;2023-05-17T01:01:24;100814.91;;;8.03;88.46
78888;BME280;68276;49.326;8.690;2023-05-17T01:03:50;100813.38;;;8.00;88.41
78888;BME280;68276;49.326;8.690;2023-05-17T01:06:16;100812.66;;;7.90;88.54
78888;BME280;68276;49.326;8.690;2023-05-17T01:08:41;100820.34;;;7.93;88.73
78888;BME280;68276;49.326;8.690;2023-05-17T01:13:57;100814.63;;;7.88;89.30
78888;BME280;68276;49.326;8.690;2023-05-17T01:16:36;100815.81;;;7.86;89.36
78888;BME280;68276;49.326;8.690;2023-05-17T01:19:50;100821.28;;;7.84;89.38
78888;BME280;68276;49.326;8.690;2023-05-17T01:22:35;100821.56;;;7.73;90.40
78888;BME280;68276;49.326;8.690;2023-05-17T01:25:27;100830.19;;;7.67;91.06
78888;BME280;68276;49.326;8.690;2023-05-17T01:27:55;100832.47;;;7.62;91.81
78888;BME280;68276;49.326;8.690;2023-05-17T01:30:24;100836.53;;;7.66;91.70
78888;BME280;68276;49.326;8.690;2023-05-17T01:32:52;100843.00;;;7.64;92.55
78888;BME280;68276;49.326;8.690;2023-05-17T01:35:17;100843.00;;;7.64;92.21
78888;BME280;68276;49.326;8.690;2023-05-17T01:37:42;100834.78;;;7.57;92.60
78888;BME280;68276;49.326;8.690;2023-05-17T01:40:08;100852.53;;;7.58;92.90
78888;BME280;68276;49.326;8.690;2023-05-17T01:42:37;100855.47;;;7.55;92.99
78888;BME280;68276;49.326;8.690;2023-05-17T01:45:27;100849.53;;;7.44;94.42
78888;BME280;68276;49.326;8.690;2023-05-17T01:50:32;100859.75;;;7.31;96.51
78888;BME280;68276;49.326;8.690;2023-05-17T01:53:04;100858.53;;;7.25;96.92
78888;BME280;68276;49.326;8.690;2023-05-17T01:55:43;100858.69;;;7.24;97.32
78888;BME280;68276;49.326;8.690;2023-05-17T01:58:12;100858.53;;;7.25;97.67
78888;BME280;68276;49.326;8.690;2023-05-17T02:00:40;100856.84;;;7.24;97.73
78888;BME280;68276;49.326;8.690;2023-05-17T02:03:06;100867.25;;;7.27;96.94
78888;BME280;68276;49.326;8.690;2023-05-17T02:05:31;100865.25;;;7.29;97.27
78888;BME280;68276;49.326;8.690;2023-05-17T02:07:57;100854.84;;;7.26;97.65
78888;BME280;68276;49.326;8.690;2023-05-17T02:10:22;100870.50;;;7.21;98.77
78888;BME280;68276;49.326;8.690;2023-05-17T02:12:48;100868.00;;;7.20;99.15
78888;BME280;68276;49.326;8.690;2023-05-17T02:15:13;100867.25;;;7.27;97.99
78888;BME280;68276;49.326;8.690;2023-05-17T02:17:40;100862.88;;;7.26;97.65
78888;BME280;68276;49.326;8.690;2023-05-17T02:20:07;100865.94;;;7.31;97.52
78888;BME280;68276;49.326;8.690;2023-05-17T02:22:33;100865.25;;;7.29;98.46
78888;BME280;68276;49.326;8.690;2023-05-17T02:24:59;100877.25;;;7.25;98.26
78888;BME280;68276;49.326;8.690;2023-05-17T02:27:24;100875.38;;;7.26;98.46
78888;BME280;68276;49.326;8.690;2023-05-17T02:29:49;100873.25;;;7.29;98.56
78888;BME280;68276;49.326;8.690;2023-05-17T02:32:15;100875.66;;;7.32;98.49
78888;BME280;68276;49.326;8.690;2023-05-17T02:34:40;100881.13;;;7.31;99.08
78888;BME280;68276;49.326;8.690;2023-05-17T02:37:05;100873.66;;;7.17;100.00
78888;BME280;68276;49.326;8.690;2023-05-17T02:39:32;100876.84;;;7.20;100.00
78888;BME280;68276;49.326;8.690;2023-05-17T02:41:57;100877.84;;;7.19;100.00
78888;BME280;68276;49.326;8.690;2023-05-17T02:44:23;100874.41;;;7.27;100.00
78888;BME280;68276;49.326;8.690;2023-05-17T02:46:48;100876.25;;;7.26;100.00
78888;BME280;68276;49.326;8.690;2023-05-17T02:49:13;100874.84;;;7.22;100.00
78888;BME280;68276;49.326;8.690;2023-05-17T02:51:39;100876.16;;;7.18;100.00
78888;BME280;68276;49.326;8.690;2023-05-17T02:54:04;100871.59;;;7.28;100.00
78888;BME280;68276;49.326;8.690;2023-05-17T02:56:30;100871.06;;;7.25;100.00
78888;BME280;68276;49.326;8.690;2023-05-17T02:58:55;100879.59;;;7.28;100.00
78888;BME280;68276;49.326;8.690;2023-05-17T03:01:22;100883.28;;;7.27;100.00
78888;BME280;68276;49.326;8.690;2023-05-17T03:03:47;100875.84;;;7.21;100.00
78888;BME280;68276;49.326;8.690;2023-05-17T03:06:13;100877.94;;;7.27;100.00
78888;BME280;68276;49.326;8.690;2023-05-17T03:08:38;100880.31;;;7.30;100.00
78888;BME280;68276;49.326;8.690;2023-05-17T03:11:04;100875.94;;;7.29;100.00
78888;BME280;68276;49.326;8.690;2023-05-17T03:13:30;100879.75;;;7.27;100.00
78888;BME280;68276;49.326;8.690;2023-05-17T03:15:56;100874.72;;;7.24;100.00
78888;BME280;68276;49.326;8.690;2023-05-17T03:18:21;100887.78;;;7.27;100.00
78888;BME280;68276;49.326;8.690;2023-05-17T03:20:47;100891.50;;;7.16;100.00
78888;BME280;68276;49.326;8.690;2023-05-17T03:23:12;100888.13;;;7.14;100.00
78888;BME280;68276;49.326;8.690;2023-05-17T03:25:37;100890.25;;;7.11;100.00
78888;BME280;68276;49.326;8.690;2023-05-17T03:28:03;100893.47;;;7.14;100.00
78888;BME280;68276;49.326;8.690;2023-05-17T03:30:28;100894.16;;;7.16;100.00
78888;BME280;68276;49.326;8.690;2023-05-17T03:32:54;100899.97;;;7.12;100.00
78888;BME280;68276;49.326;8.690;2023-05-17T03:35:19;100899.84;;;7.04;100.00
78888;BME280;68276;49.326;8.690;2023-05-17T03:37:45;100902.38;;;7.05;100.00
78888;BME280;68276;49.326;8.690;2023-05-17T03:40:10;100902.28;;;6.97;100.00
78888;BME280;68276;49.326;8.690;2023-05-17T03:42:36;100898.44;;;6.82;100.00
78888;BME280;68276;49.326;8.690;2023-05-17T03:45:03;100901.38;;;6.79;100.00
78888;BME280;68276;49.326;8.690;2023-05-17T03:47:28;100906.44;;;6.82;100.00
78888;BME280;68276;49.326;8.690;2023-05-17T03:49:54;100909.66;;;6.85;100.00
78888;BME280;68276;49.326;8.690;2023-05-17T03:52:20;100912.34;;;6.85;100.00
78888;BME280;68276;49.326;8.690;2023-05-17T03:54:45;100913.69;;;6.89;100.00
78888;BME280;68276;49.326;8.690;2023-05-17T03:57:10;100921.28;;;6.94;100.00
78888;BME280;68276;49.326;8.690;2023-05-17T03:59:36;100912.28;;;6.95;100.00
78888;BME280;68276;49.326;8.690;2023-05-17T04:02:01;100918.22;;;6.89;100.00
78888;BME280;68276;49.326;8.690;2023-05-17T04:04:27;100917.63;;;6.95;100.00
78888;BME280;68276;49.326;8.690;2023-05-17T04:06:52;100927.59;;;6.93;100.00
78888;BME280;68276;49.326;8.690;2023-05-17T04:09:17;100928.22;;;6.87;100.00
78888;BME280;68276;49.326;8.690;2023-05-17T04:11:44;100928.09;;;6.79;100.00
78888;BME280;68276;49.326;8.690;2023-05-17T04:14:09;100928.69;;;6.73;100.00
78888;BME280;68276;49.326;8.690;2023-05-17T04:16:34;100931.31;;;6.82;100.00
78888;BME280;68276;49.326;8.690;2023-05-17T04:19:00;100932.56;;;6.88;100.00
78888;BME280;68276;49.326;8.690;2023-05-17T04:21:25;100937.88;;;6.88;100.00
78888;BME280;68276;49.326;8.690;2023-05-17T04:23:51;100946.28;;;6.93;100.00
78888;BME280;68276;49.326;8.690;2023-05-17T04:26:16;100939.59;;;6.89;100.00
78888;BME280;68276;49.326;8.690;2023-05-17T04:28:42;100947.44;;;6.90;100.00
78888;BME280;68276;49.326;8.690;2023-05-17T04:31:07;100945.59;;;6.91;100.00
78888;BME280;68276;49.326;8.690;2023-05-17T04:33:33;100951.38;;;6.96;100.00
78888;BME280;68276;49.326;8.690;2023-05-17T04:35:58;100953.28;;;7.04;100.00
78888;BME280;68276;49.326;8.690;2023-05-17T04:38:24;100951.00;;;7.09;100.00
78888;BME280;68276;49.326;8.690;2023-05-17T04:40:49;100956.59;;;7.15;100.00
78888;BME280;68276;49.326;8.690;2023-05-17T04:43:15;100967.72;;;7.20;100.00
78888;BME280;68276;49.326;8.690;2023-05-17T04:45:40;100961.34;;;7.21;100.00
78888;BME280;68276;49.326;8.690;2023-05-17T04:48:06;100969.84;;;7.34;100.00
78888;BME280;68276;49.326;8.690;2023-05-17T04:50:32;100972.09;;;7.39;100.00
78888;BME280;68276;49.326;8.690;2023-05-17T04:52:57;100966.44;;;7.42;100.00
78888;BME280;68276;49.326;8.690;2023-05-17T04:55:24;100977.91;;;7.52;100.00
78888;BME280;68276;49.326;8.690;2023-05-17T04:57:50;100982.72;;;7.48;100.00
78888;BME280;68276;49.326;8.690;2023-05-17T05:00:16;100974.13;;;7.54;100.00
78888;BME280;68276;49.326;8.690;2023-05-17T05:02:43;100984.19;;;7.60;100.00
78888;BME280;68276;49.326;8.690;2023-05-17T05:05:09;100991.63;;;7.66;100.00
78888;BME280;68276;49.326;8.690;2023-05-17T05:07:34;100990.09;;;7.64;100.00
78888;BME280;68276;49.326;8.690;2023-05-17T05:10:00;101002.16;;;7.68;100.00
78888;BME280;68276;49.326;8.690;2023-05-17T05:12:26;101003.09;;;7.76;100.00
78888;BME280;68276;49.326;8.690;2023-05-17T05:14:51;101004.88;;;7.85;100.00
78888;BME280;68276;49.326;8.690;2023-05-17T05:17:17;101001.72;;;7.90;99.57
78888;BME280;68276;49.326;8.690;2023-05-17T05:19:42;101003.66;;;7.97;98.82
78888;BME280;68276;49.326;8.690;2023-05-17T05:22:08;101010.63;;;8.08;99.23
78888;BME280;68276;49.326;8.690;2023-05-17T05:24:33;101022.06;;;8.18;98.47
78888;BME280;68276;49.326;8.690;2023-05-17T05:26:58;101019.19;;;8.11;98.69
78888;BME280;68276;49.326;8.690;2023-05-17T05:29:24;101030.25;;;8.17;99.20
78888;BME280;68276;49.326;8.690;2023-05-17T05:31:49;101024.59;;;8.20;98.29
78888;BME280;68276;49.326;8.690;2023-05-17T05:34:15;101035.44;;;8.28;98.03
78888;BME280;68276;49.326;8.690;2023-05-17T05:36:40;101023.88;;;8.27;97.30
78888;BME280;68276;49.326;8.690;2023-05-17T05:39:06;101031.81;;;8.37;96.62
78888;BME280;68276;49.326;8.690;2023-05-17T05:41:32;101031.53;;;8.40;95.78
78888;BME280;68276;49.326;8.690;2023-05-17T05:43:57;101034.56;;;8.45;96.37
78888;BME280;68276;49.326;8.690;2023-05-17T05:46:23;101030.28;;;8.52;95.52
78888;BME280;68276;49.326;8.690;2023-05-17T05:48:48;101031.19;;;8.60;96.06
78888;BME280;68276;49.326;8.690;2023-05-17T05:51:14;101040.72;;;8.63;96.70
78888;BME280;68276;49.326;8.690;2023-05-17T05:53:39;101033.84;;;8.78;96.43
78888;BME280;68276;49.326;8.690;2023-05-17T05:56:04;101036.06;;;8.90;96.73
78888;BME280;68276;49.326;8.690;2023-05-17T05:58:31;101035.34;;;9.06;96.06
78888;BME280;68276;49.326;8.690;2023-05-17T06:00:56;101036.16;;;8.98;94.80
78888;BME280;68276;49.326;8.690;2023-05-17T06:03:22;101039.03;;;9.05;93.69
78888;BME280;68276;49.326;8.690;2023-05-17T06:05:48;101048.69;;;8.98;93.81
78888;BME280;68276;49.326;8.690;2023-05-17T06:08:14;101039.34;;;9.02;93.21
78888;BME280;68276;49.326;8.690;2023-05-17T06:10:39;101047.63;;;9.16;93.44
78888;BME280;68276;49.326;8.690;2023-05-17T06:13:05;101047.16;;;9.21;93.06
78888;BME280;68276;49.326;8.690;2023-05-17T06:15:30;101049.53;;;9.24;91.89
78888;BME280;68276;49.326;8.690;2023-05-17T06:17:57;101053.50;;;9.20;90.86
78888;BME280;68276;49.326;8.690;2023-05-17T06:20:22;101053.72;;;9.26;90.65
78888;BME280;68276;49.326;8.690;2023-05-17T06:22:49;101058.66;;;9.47;89.47
78888;BME280;68276;49.326;8.690;2023-05-17T06:25:14;101064.28;;;9.62;88.75
78888;BME280;68276;49.326;8.690;2023-05-17T06:27:40;101056.66;;;9.83;87.33
78888;BME280;68276;49.326;8.690;2023-05-17T06:30:06;101063.91;;;9.98;84.61
78888;BME280;68276;49.326;8.690;2023-05-17T06:32:31;101057.56;;;10.07;83.93
78888;BME280;68276;49.326;8.690;2023-05-17T06:34:57;101066.50;;;10.24;82.56
78888;BME280;68276;49.326;8.690;2023-05-17T06:37:22;101074.09;;;10.28;82.18
78888;BME280;68276;49.326;8.690;2023-05-17T06:39:50;101071.75;;;10.50;81.68
78888;BME280;68276;49.326;8.690;2023-05-17T06:42:15;101077.13;;;10.66;79.28
78888;BME280;68276;49.326;8.690;2023-05-17T06:44:41;101070.06;;;10.73;79.65
78888;BME280;68276;49.326;8.690;2023-05-17T06:47:06;101076.94;;;10.91;78.26
78888;BME280;68276;49.326;8.690;2023-05-17T06:49:32;101072.56;;;10.98;75.77
78888;BME280;68276;49.326;8.690;2023-05-17T06:51:57;101075.59;;;11.03;75.08
78888;BME280;68276;49.326;8.690;2023-05-17T06:54:28;101074.75;;;11.11;74.05
78888;BME280;68276;49.326;8.690;2023-05-17T06:56:54;101072.69;;;11.29;74.14
78888;BME280;68276;49.326;8.690;2023-05-17T06:59:20;101072.31;;;11.40;71.81
78888;BME280;68276;49.326;8.690;2023-05-17T07:01:45;101080.16;;;11.57;72.08
78888;BME280;68276;49.326;8.690;2023-05-17T07:04:11;101073.31;;;11.47;70.39
78888;BME280;68276;49.326;8.690;2023-05-17T07:06:36;101073.31;;;11.47;68.78
78888;BME280;68276;49.326;8.690;2023-05-17T07:09:02;101072.25;;;11.72;67.84
78888;BME280;68276;49.326;8.690;2023-05-17T07:11:27;101075.88;;;11.87;64.90
78888;BME280;68276;49.326;8.690;2023-05-17T07:13:52;101076.72;;;12.18;63.42
78888;BME280;68276;49.326;8.690;2023-05-17T07:16:18;101077.25;;;12.36;62.75
78888;BME280;68276;49.326;8.690;2023-05-17T07:18:43;101082.41;;;12.23;62.50
78888;BME280;68276;49.326;8.690;2023-05-17T07:21:08;101085.53;;;12.35;62.32
78888;BME280;68276;49.326;8.690;2023-05-17T07:23:34;101083.69;;;12.58;63.95
78888;BME280;68276;49.326;8.690;2023-05-17T07:25:59;101076.59;;;12.80;61.91
78888;BME280;68276;49.326;8.690;2023-05-17T07:28:25;101068.94;;;12.68;62.98
78888;BME280;68276;49.326;8.690;2023-05-17T07:30:50;101086.56;;;12.56;62.81
78888;BME280;68276;49.326;8.690;2023-05-17T07:33:15;101082.13;;;12.41;63.06
78888;BME280;68276;49.326;8.690;2023-05-17T07:35:41;101082.59;;;12.22;64.34
78888;BME280;68276;49.326;8.690;2023-05-17T07:38:07;101086.25;;;11.98;65.89
78888;BME280;68276;49.326;8.690;2023-05-17T07:40:34;101074.19;;;11.86;65.59
78888;BME280;68276;49.326;8.690;2023-05-17T07:42:59;101083.81;;;11.81;66.37
78888;BME280;68276;49.326;8.690;2023-05-17T07:45:25;101084.63;;;11.89;64.99
78888;BME280;68276;49.326;8.690;2023-05-17T07:47:50;101081.16;;;11.73;67.46
78888;BME280;68276;49.326;8.690;2023-05-17T07:50:16;101074.84;;;11.96;66.74
78888;BME280;68276;49.326;8.690;2023-05-17T07:52:41;101083.53;;;11.98;67.70
78888;BME280;68276;49.326;8.690;2023-05-17T07:55:07;101087.06;;;12.29;63.25
78888;BME280;68276;49.326;8.690;2023-05-17T07:57:32;101086.13;;;12.22;63.03
78888;BME280;68276;49.326;8.690;2023-05-17T07:59:58;101089.63;;;12.31;65.63
78888;BME280;68276;49.326;8.690;2023-05-17T08:02:23;101083.94;;;12.18;65.24
78888;BME280;68276;49.326;8.690;2023-05-17T08:04:49;101090.09;;;12.34;64.94
78888;BME280;68276;49.326;8.690;2023-05-17T08:07:14;101083.97;;;12.40;61.97
78888;BME280;68276;49.326;8.690;2023-05-17T08:09:40;101088.53;;;12.62;60.04
78888;BME280;68276;49.326;8.690;2023-05-17T08:12:08;101087.16;;;12.66;59.77
78888;BME280;68276;49.326;8.690;2023-05-17T08:14:34;101081.28;;;12.86;59.13
78888;BME280;68276;49.326;8.690;2023-05-17T08:16:59;101087.69;;;13.22;59.40
78888;BME280;68276;49.326;8.690;2023-05-17T08:19:24;101087.91;;;13.64;57.25
78888;BME280;68276;49.326;8.690;2023-05-17T08:21:50;101076.44;;;13.47;57.19
78888;BME280;68276;49.326;8.690;2023-05-17T08:24:15;101086.09;;;13.13;56.84
78888;BME280;68276;49.326;8.690;2023-05-17T08:26:42;101086.09;;;13.13;57.71
78888;BME280;68276;49.326;8.690;2023-05-17T08:29:07;101082.41;;;12.91;56.86
78888;BME280;68276;49.326;8.690;2023-05-17T08:31:33;101079.44;;;13.01;57.13
78888;BME280;68276;49.326;8.690;2023-05-17T08:33:58;101088.66;;;12.92;58.18
78888;BME280;68276;49.326;8.690;2023-05-17T08:36:24;101080.22;;;12.72;57.95
78888;BME280;68276;49.326;8.690;2023-05-17T08:38:49;101082.25;;;12.70;58.08
78888;BME280;68276;49.326;8.690;2023-05-17T08:41:15;101087.22;;;12.58;58.63
78888;BME280;68276;49.326;8.690;2023-05-17T08:43:41;101094.41;;;12.66;58.44
78888;BME280;68276;49.326;8.690;2023-05-17T08:46:08;101082.66;;;12.82;58.41
78888;BME280;68276;49.326;8.690;2023-05-17T08:48:34;101091.69;;;12.89;57.47
78888;BME280;68276;49.326;8.690;2023-05-17T08:51:06;101090.03;;;12.88;56.73
78888;BME280;68276;49.326;8.690;2023-05-17T08:53:32;101094.34;;;12.74;56.82
78888;BME280;68276;49.326;8.690;2023-05-17T08:56:00;101092.34;;;12.91;56.00
78888;BME280;68276;49.326;8.690;2023-05-17T08:58:27;101089.63;;;12.76;56.63
78888;BME280;68276;49.326;8.690;2023-05-17T09:00:56;101089.84;;;12.66;57.34
78888;BME280;68276;49.326;8.690;2023-05-17T09:03:23;101085.97;;;12.69;57.23
78888;BME280;68276;49.326;8.690;2023-05-17T09:05:50;101081.97;;;12.80;57.17
78888;BME280;68276;49.326;8.690;2023-05-17T09:08:21;101081.91;;;13.10;56.03
78888;BME280;68276;49.326;8.690;2023-05-17T09:10:48;101084.63;;;13.25;54.76
78888;BME280;68276;49.326;8.690;2023-05-17T09:13:13;101087.22;;;13.04;54.81
78888;BME280;68276;49.326;8.690;2023-05-17T09:15:43;101083.69;;;12.95;54.51
78888;BME280;68276;49.326;8.690;2023-05-17T09:18:10;101084.53;;;12.96;55.15
78888;BME280;68276;49.326;8.690;2023-05-17T09:20:39;101079.50;;;13.15;54.99
78888;BME280;68276;49.326;8.690;2023-05-17T09:23:09;101085.47;;;13.25;55.20
78888;BME280;68276;49.326;8.690;2023-05-17T09:25:37;101078.97;;;13.63;53.07
78888;BME280;68276;49.326;8.690;2023-05-17T09:28:06;101078.69;;;13.44;52.82
78888;BME280;68276;49.326;8.690;2023-05-17T09:30:33;101080.84;;;13.48;52.40
78888;BME280;68276;49.326;8.690;2023-05-17T09:33:09;101080.47;;;13.66;51.52
78888;BME280;68276;49.326;8.690;2023-05-17T09:35:36;101081.03;;;13.47;51.20
78888;BME280;68276;49.326;8.690;2023-05-17T09:38:08;101086.22;;;13.77;50.55
78888;BME280;68276;49.326;8.690;2023-05-17T09:40:41;101084.00;;;13.81;49.29
78888;BME280;68276;49.326;8.690;2023-05-17T09:43:07;101091.31;;;13.87;48.70
78888;BME280;68276;49.326;8.690;2023-05-17T09:45:34;101084.41;;;13.99;48.82
78888;BME280;68276;49.326;8.690;2023-05-17T09:48:18;101086.97;;;14.22;48.48
78888;BME280;68276;49.326;8.690;2023-05-17T09:50:50;101083.81;;;14.18;48.06
78888;BME280;68276;49.326;8.690;2023-05-17T09:55:54;101087.31;;;13.98;48.12
78888;BME280;68276;49.326;8.690;2023-05-17T09:58:21;101086.75;;;14.02;48.19
78888;BME280;68276;49.326;8.690;2023-05-17T10:00:50;101087.16;;;14.20;46.80
78888;BME280;68276;49.326;8.690;2023-05-17T10:03:20;101094.03;;;14.02;45.56
78888;BME280;68276;49.326;8.690;2023-05-17T10:05:49;101090.91;;;14.19;45.06
78888;BME280;68276;49.326;8.690;2023-05-17T10:08:20;101080.72;;;14.36;45.12
78888;BME280;68276;49.326;8.690;2023-05-17T10:10:47;101088.63;;;14.37;44.75
78888;BME280;68276;49.326;8.690;2023-05-17T10:13:14;101086.16;;;14.21;44.04
78888;BME280;68276;49.326;8.690;2023-05-17T10:15:44;101092.97;;;14.32;45.13
78888;BME280;68276;49.326;8.690;2023-05-17T10:18:09;101092.00;;;14.39;45.79
78888;BME280;68276;49.326;8.690;2023-05-17T10:20:35;101097.63;;;14.23;45.72
78888;BME280;68276;49.326;8.690;2023-05-17T10:23:01;101083.38;;;14.29;45.23
78888;BME280;68276;49.326;8.690;2023-05-17T10:25:29;101089.47;;;14.38;45.00
78888;BME280;68276;49.326;8.690;2023-05-17T10:27:55;101089.66;;;14.51;44.98
78888;BME280;68276;49.326;8.690;2023-05-17T10:30:21;101088.53;;;14.45;44.92
78888;BME280;68276;49.326;8.690;2023-05-17T10:32:48;101086.22;;;14.63;45.34
78888;BME280;68276;49.326;8.690;2023-05-17T10:35:14;101090.53;;;14.37;45.95
78888;BME280;68276;49.326;8.690;2023-05-17T10:37:40;101084.56;;;14.27;45.50
78888;BME280;68276;49.326;8.690;2023-05-17T10:40:07;101091.38;;;14.23;46.37
78888;BME280;68276;49.326;8.690;2023-05-17T10:42:48;101095.53;;;14.40;46.55
78888;BME280;68276;49.326;8.690;2023-05-17T10:45:15;101098.25;;;14.25;46.81
78888;BME280;68276;49.326;8.690;2023-05-17T10:47:44;101105.16;;;14.13;47.04
78888;BME280;68276;49.326;8.690;2023-05-17T10:50:14;101100.47;;;13.86;47.54
78888;BME280;68276;49.326;8.690;2023-05-17T10:52:47;101093.41;;;13.85;48.21
78888;BME280;68276;49.326;8.690;2023-05-17T10:55:12;101096.75;;;13.58;48.74
78888;BME280;68276;49.326;8.690;2023-05-17T10:57:38;101104.19;;;13.56;48.92
78888;BME280;68276;49.326;8.690;2023-05-17T11:00:05;101096.28;;;13.69;48.58
78888;BME280;68276;49.326;8.690;2023-05-17T11:02:33;101091.16;;;13.74;47.91
78888;BME280;68276;49.326;8.690;2023-05-17T11:04:58;101101.31;;;13.72;48.27
78888;BME280;68276;49.326;8.690;2023-05-17T11:07:30;101102.31;;;13.86;48.61
78888;BME280;68276;49.326;8.690;2023-05-17T11:12:40;101105.31;;;14.41;46.88
78888;BME280;68276;49.326;8.690;2023-05-17T11:15:08;101101.66;;;14.48;46.43
78888;BME280;68276;49.326;8.690;2023-05-17T11:22:54;101091.06;;;15.17;44.56
78888;BME280;68276;49.326;8.690;2023-05-17T11:25:20;101087.00;;;14.57;45.00
78888;BME280;68276;49.326;8.690;2023-05-17T11:27:49;101098.09;;;14.27;45.60
78888;BME280;68276;49.326;8.690;2023-05-17T11:30:27;101093.16;;;14.51;45.69
78888;BME280;68276;49.326;8.690;2023-05-17T11:33:06;101098.63;;;14.37;45.55
78888;BME280;68276;49.326;8.690;2023-05-17T11:35:33;101088.09;;;14.63;45.56
78888;BME280;68276;49.326;8.690;2023-05-17T11:38:19;101101.53;;;14.56;46.27
78888;BME280;68276;49.326;8.690;2023-05-17T11:40:52;101091.88;;;14.68;48.46
78888;BME280;68276;49.326;8.690;2023-05-17T11:43:20;101088.28;;;14.40;48.13
78888;BME280;68276;49.326;8.690;2023-05-17T11:45:50;101087.56;;;14.03;49.04
78888;BME280;68276;49.326;8.690;2023-05-17T11:48:18;101094.56;;;14.26;48.39
78888;BME280;68276;49.326;8.690;2023-05-17T11:50:45;101094.19;;;14.29;48.45
78888;BME280;68276;49.326;8.690;2023-05-17T11:53:11;101084.00;;;14.17;48.39
78888;BME280;68276;49.326;8.690;2023-05-17T11:55:43;101086.53;;;14.18;47.58
78888;BME280;68276;49.326;8.690;2023-05-17T11:58:10;101082.94;;;14.47;46.13
78888;BME280;68276;49.326;8.690;2023-05-17T12:00:37;101085.25;;;14.14;47.03
78888;BME280;68276;49.326;8.690;2023-05-17T12:03:19;101084.41;;;14.49;46.57
78888;BME280;68276;49.326;8.690;2023-05-17T12:05:47;101082.53;;;14.71;46.09
78888;BME280;68276;49.326;8.690;2023-05-17T12:08:15;101074.72;;;15.04;44.47
78888;BME280;68276;49.326;8.690;2023-05-17T12:10:46;101065.63;;;15.11;44.07
78888;BME280;68276;49.326;8.690;2023-05-17T12:13:11;101058.41;;;15.46;42.17
78888;BME280;68276;49.326;8.690;2023-05-17T12:15:38;101058.50;;;16.13;41.33
78888;BME280;68276;49.326;8.690;2023-05-17T12:18:04;101056.53;;;15.93;41.95
78888;BME280;68276;49.326;8.690;2023-05-17T12:20:29;101054.78;;;16.33;40.98
78888;BME280;68276;49.326;8.690;2023-05-17T12:22:57;101054.03;;;17.11;39.78
78888;BME280;68276;49.326;8.690;2023-05-17T12:25:23;101055.50;;;16.48;39.87
78888;BME280;68276;49.326;8.690;2023-05-17T12:28:15;101057.16;;;16.56;39.81
78888;BME280;68276;49.326;8.690;2023-05-17T12:30:39;101060.00;;;16.28;39.53
78888;BME280;68276;49.326;8.690;2023-05-17T12:33:06;101054.34;;;15.35;42.10
78888;BME280;68276;49.326;8.690;2023-05-17T12:35:31;101057.31;;;15.13;42.54
78888;BME280;68276;49.326;8.690;2023-05-17T12:37:57;101057.00;;;15.29;43.78
78888;BME280;68276;49.326;8.690;2023-05-17T12:40:24;101053.28;;;15.36;43.53
78888;BME280;68276;49.326;8.690;2023-05-17T12:42:49;101045.66;;;15.19;43.77
78888;BME280;68276;49.326;8.690;2023-05-17T12:45:15;101056.69;;;15.79;42.19
78888;BME280;68276;49.326;8.690;2023-05-17T12:47:42;101049.50;;;16.05;42.27
78888;BME280;68276;49.326;8.690;2023-05-17T12:50:07;101046.63;;;16.14;41.09
78888;BME280;68276;49.326;8.690;2023-05-17T12:52:33;101043.59;;;15.89;41.95
78888;BME280;68276;49.326;8.690;2023-05-17T12:55:02;101038.28;;;16.15;40.68
78888;BME280;68276;49.326;8.690;2023-05-17T12:57:28;101040.88;;;16.49;40.27
78888;BME280;68276;49.326;8.690;2023-05-17T12:59:54;101037.16;;;15.96;40.58
78888;BME280;68276;49.326;8.690;2023-05-17T13:02:20;101028.56;;;15.80;40.53
78888;BME280;68276;49.326;8.690;2023-05-17T13:04:45;101032.63;;;16.10;40.32
78888;BME280;68276;49.326;8.690;2023-05-17T13:07:11;101025.75;;;16.14;40.26